Time;durP1;ratioP1;P1;durP2;ratioP2;P2;SDS_P1;SDS_P2;PMS_P1;PMS_P2;Temp;Humidity;BMP_temperature;BMP_pressure;BME280_temperature;BME280_humidity;BME280_pressure;Samples;Min_cycle;Max_cycle;Signal;HPM_P1;HPM_P2
2023/01/30 00:00:29;;;;;;;1.80;1.70;;;7.50;99.90;;;;;;4988723;28;20042;-67
2023/01/30 00:02:55;;;;;;;0.10;0.10;;;7.50;99.90;;;;;;4988013;28;20034;-67
2023/01/30 00:05:21;;;;;;;1.27;1.17;;;7.50;99.90;;;;;;4985798;28;20054;-67
2023/01/30 00:07:47;;;;;;;0.10;0.10;;;7.40;99.90;;;;;;4983392;28;20046;-67
2023/01/30 00:10:12;;;;;;;0.90;0.90;;;7.50;99.90;;;;;;4988077;28;20551;-67
2023/01/30 00:12:41;;;;;;;0.00;0.00;;;7.50;99.90;;;;;;4968017;28;20145;-68
2023/01/30 00:15:07;;;;;;;0.20;0.20;;;7.40;99.90;;;;;;4986183;28;20442;-67
2023/01/30 00:17:33;;;;;;;0.85;0.85;;;7.40;99.90;;;;;;4986683;28;20043;-68
2023/01/30 00:19:59;;;;;;;3.83;1.75;;;7.30;99.90;;;;;;4967007;28;20057;-68
2023/01/30 00:22:25;;;;;;;0.10;0.10;;;7.30;99.90;;;;;;4970671;28;20081;-68
2023/01/30 00:24:50;;;;;;;0.10;0.10;;;7.20;99.90;;;;;;4984527;28;20294;-68
2023/01/30 00:27:16;;;;;;;0.20;0.20;;;7.20;99.90;;;;;;4987295;28;20502;-68
2023/01/30 00:29:42;;;;;;;0.70;0.70;;;7.10;99.90;;;;;;4988073;28;20045;-68
2023/01/30 00:32:13;;;;;;;4.30;1.75;;;7.20;99.90;;;;;;4985300;28;20128;-68
2023/01/30 00:34:39;;;;;;;0.65;0.65;;;7.20;99.90;;;;;;4968255;28;20042;-68
2023/01/30 00:37:04;;;;;;;0.70;0.70;;;7.10;99.90;;;;;;4967083;28;20038;-68
2023/01/30 00:39:30;;;;;;;0.47;0.47;;;7.10;99.90;;;;;;4987001;28;20518;-68
2023/01/30 00:47:24;;;;;;;0.40;0.40;;;7.10;99.90;;;;;;4985643;28;20108;-66
2023/01/30 00:49:50;;;;;;;0.15;0.15;;;7.10;99.90;;;;;;4989342;28;20117;-66
2023/01/30 00:52:16;;;;;;;0.15;0.15;;;7.10;99.90;;;;;;4987104;28;20090;-66
2023/01/30 00:54:41;;;;;;;0.20;0.20;;;7.10;99.90;;;;;;4990368;28;20042;-66
2023/01/30 00:57:07;;;;;;;0.05;0.05;;;7.10;99.90;;;;;;4988950;28;20092;-66
2023/01/30 00:59:32;;;;;;;2.08;1.85;;;7.10;99.90;;;;;;4991704;28;20617;-66
2023/01/30 01:01:58;;;;;;;1.05;0.95;;;7.10;99.90;;;;;;4989371;28;20049;-66
2023/01/30 01:04:27;;;;;;;0.28;0.28;;;7.10;99.90;;;;;;4974194;28;20105;-66
2023/01/30 01:06:52;;;;;;;0.13;0.13;;;7.00;99.90;;;;;;4985822;28;20041;-68
2023/01/30 01:09:20;;;;;;;0.47;0.47;;;7.00;99.90;;;;;;4989030;28;20060;-66
2023/01/30 01:11:46;;;;;;;1.55;1.02;;;7.00;99.90;;;;;;4990304;28;20038;-66
2023/01/30 01:14:24;;;;;;;0.43;0.43;;;7.00;99.90;;;;;;4989088;28;20395;-66
2023/01/30 01:16:50;;;;;;;0.10;0.10;;;7.00;99.90;;;;;;4988242;28;20081;-66
2023/01/30 01:19:15;;;;;;;0.25;0.25;;;7.00;99.90;;;;;;4990675;28;20046;-66
2023/01/30 01:21:41;;;;;;;0.10;0.10;;;7.00;99.90;;;;;;4988731;28;20082;-70
2023/01/30 01:24:12;;;;;;;0.00;0.00;;;7.00;99.90;;;;;;4991107;28;20136;-69
2023/01/30 01:26:38;;;;;;;12.35;2.22;;;7.00;99.90;;;;;;4990544;28;20973;-67
2023/01/30 01:29:09;;;;;;;0.10;0.10;;;7.00;99.90;;;;;;4986411;28;20037;-66
2023/01/30 01:31:35;;;;;;;0.95;0.95;;;7.00;99.90;;;;;;4971990;28;20050;-66
2023/01/30 01:34:01;;;;;;;0.15;0.15;;;7.00;99.90;;;;;;4990306;28;20073;-66
2023/01/30 01:36:26;;;;;;;3.63;1.45;;;7.00;99.90;;;;;;4971380;28;20512;-68
2023/01/30 01:38:52;;;;;;;0.20;0.20;;;7.10;99.90;;;;;;4988185;28;20049;-69
2023/01/30 01:41:18;;;;;;;0.52;0.52;;;7.10;99.90;;;;;;4991092;28;20042;-69
2023/01/30 01:44:05;;;;;;;4.25;0.98;;;7.10;99.90;;;;;;4988188;28;20058;-68
2023/01/30 01:46:52;;;;;;;2.10;2.00;;;7.10;99.90;;;;;;4986883;28;20154;-66
2023/01/30 01:49:36;;;;;;;6.20;2.22;;;7.10;99.90;;;;;;4989879;28;20042;-67
2023/01/30 01:52:07;;;;;;;0.52;0.52;;;7.20;99.90;;;;;;4966329;28;20054;-66
2023/01/30 01:54:40;;;;;;;2.55;2.45;;;7.20;99.90;;;;;;4972825;28;20054;-66
2023/01/30 01:57:14;;;;;;;1.08;0.45;;;7.20;99.90;;;;;;4989558;28;20051;-66
2023/01/30 01:59:58;;;;;;;0.45;0.45;;;7.20;99.90;;;;;;4990391;28;20078;-66
2023/01/30 02:02:25;;;;;;;0.20;0.20;;;7.30;99.90;;;;;;4989413;28;20042;-67
2023/01/30 02:05:01;;;;;;;0.10;0.10;;;7.30;99.90;;;;;;4987531;28;20058;-66
2023/01/30 02:07:58;;;;;;;1.45;1.35;;;7.30;99.90;;;;;;4994350;28;20081;-66
2023/01/30 02:10:46;;;;;;;1.77;1.67;;;7.30;99.90;;;;;;4989359;28;20057;-66
2023/01/30 02:13:12;;;;;;;9.43;2.88;;;7.30;99.90;;;;;;4987841;28;20058;-66
2023/01/30 02:15:38;;;;;;;0.52;0.52;;;7.30;99.90;;;;;;4988429;28;20034;-66
2023/01/30 02:18:04;;;;;;;0.00;0.00;;;7.40;99.90;;;;;;4986703;28;20034;-66
2023/01/30 02:21:11;;;;;;;0.55;0.55;;;7.40;99.90;;;;;;4989923;28;20069;-66
2023/01/30 02:24:15;;;;;;;0.10;0.10;;;7.40;99.90;;;;;;4987912;28;20082;-67
2023/01/30 02:27:32;;;;;;;0.10;0.10;;;7.40;99.90;;;;;;4969757;28;20045;-67
2023/01/30 02:30:30;;;;;;;0.20;0.20;;;7.40;99.90;;;;;;4935183;29;20471;-66
2023/01/30 02:33:10;;;;;;;0.13;0.13;;;7.40;99.90;;;;;;4928244;29;20044;-67
2023/01/30 02:36:08;;;;;;;1.77;1.65;;;7.40;99.90;;;;;;4972736;28;20093;-66
2023/01/30 02:38:56;;;;;;;0.10;0.10;;;7.40;99.90;;;;;;4983231;28;20050;-66
2023/01/30 02:41:35;;;;;;;0.63;0.63;;;7.40;99.90;;;;;;4986847;28;20147;-66
2023/01/30 02:44:10;;;;;;;1.25;1.23;;;7.30;99.90;;;;;;4987603;28;20042;-66
2023/01/30 02:46:41;;;;;;;3.38;1.63;;;7.30;99.90;;;;;;4988617;28;20047;-66
2023/01/30 02:49:13;;;;;;;0.77;0.77;;;7.30;99.90;;;;;;4987569;28;20176;-66
2023/01/30 02:51:41;;;;;;;0.10;0.10;;;7.30;99.90;;;;;;4966164;28;20047;-66
2023/01/30 02:54:13;;;;;;;1.48;1.40;;;7.30;99.90;;;;;;4986810;28;20298;-66
2023/01/30 02:56:48;;;;;;;4.88;2.40;;;7.20;99.90;;;;;;4986677;28;20046;-66
2023/01/30 02:59:18;;;;;;;0.73;0.73;;;7.20;99.90;;;;;;4987058;28;20081;-66
2023/01/30 03:02:09;;;;;;;0.10;0.10;;;7.20;99.90;;;;;;4987040;28;20034;-66
2023/01/30 03:04:50;;;;;;;0.52;0.52;;;7.20;99.90;;;;;;4988094;28;20082;-66
2023/01/30 03:07:40;;;;;;;0.22;0.22;;;7.20;99.90;;;;;;4988190;28;20034;-66
2023/01/30 03:10:15;;;;;;;0.35;0.35;;;7.20;99.90;;;;;;4987506;28;20053;-66
2023/01/30 03:12:57;;;;;;;0.00;0.00;;;7.10;99.90;;;;;;4984676;28;20042;-66
2023/01/30 03:15:30;;;;;;;0.55;0.55;;;7.10;99.90;;;;;;4986129;28;20048;-67
2023/01/30 03:17:56;;;;;;;25.42;1.20;;;7.10;99.90;;;;;;4984455;28;20551;-67
2023/01/30 03:20:25;;;;;;;0.22;0.22;;;7.10;99.90;;;;;;4988046;28;20498;-66
2023/01/30 03:22:53;;;;;;;1.75;1.00;;;7.10;99.90;;;;;;4969749;28;20529;-66
2023/01/30 03:25:22;;;;;;;0.10;0.10;;;7.10;99.90;;;;;;4989105;28;20038;-65
2023/01/30 03:27:50;;;;;;;0.65;0.65;;;7.20;99.90;;;;;;4969849;28;20049;-65
2023/01/30 03:30:16;;;;;;;0.10;0.10;;;7.20;99.90;;;;;;4986277;28;20070;-66
2023/01/30 03:32:42;;;;;;;0.20;0.20;;;7.20;99.90;;;;;;4986822;28;20037;-66
2023/01/30 03:35:08;;;;;;;0.73;0.73;;;7.20;99.90;;;;;;4970523;28;20896;-66
2023/01/30 03:37:34;;;;;;;0.30;0.30;;;7.20;99.90;;;;;;4969453;28;20497;-65
2023/01/30 03:40:00;;;;;;;0.20;0.20;;;7.20;99.90;;;;;;4985869;28;20090;-68
2023/01/30 03:42:26;;;;;;;0.30;0.30;;;7.20;99.90;;;;;;4987251;28;20477;-68
2023/01/30 03:44:51;;;;;;;0.10;0.10;;;7.20;99.90;;;;;;4987034;28;20042;-68
2023/01/30 03:47:17;;;;;;;0.95;0.93;;;7.30;99.90;;;;;;4986444;28;20052;-68
2023/01/30 03:49:43;;;;;;;0.20;0.20;;;7.30;99.90;;;;;;4988247;28;20050;-68
2023/01/30 03:52:08;;;;;;;0.20;0.20;;;7.20;99.90;;;;;;4986213;28;20516;-68
2023/01/30 03:54:34;;;;;;;0.40;0.40;;;7.20;99.90;;;;;;4984392;28;20046;-68
2023/01/30 03:57:00;;;;;;;2.50;2.17;;;7.20;99.90;;;;;;4987242;28;20042;-68
2023/01/30 03:59:25;;;;;;;0.47;0.47;;;7.10;99.90;;;;;;4986992;28;20065;-68
2023/01/30 04:01:51;;;;;;;0.85;0.75;;;7.10;99.90;;;;;;4985483;28;20038;-68
2023/01/30 04:04:17;;;;;;;0.10;0.10;;;7.00;99.90;;;;;;4987752;28;20508;-68
2023/01/30 04:06:43;;;;;;;1.73;1.63;;;7.00;99.90;;;;;;4986371;28;20405;-68
2023/01/30 04:09:08;;;;;;;1.60;1.45;;;6.90;99.90;;;;;;4983345;28;20494;-68
2023/01/30 04:11:37;;;;;;;0.30;0.30;;;6.90;99.90;;;;;;4986970;28;20034;-66
2023/01/30 04:14:02;;;;;;;0.00;0.00;;;6.90;99.90;;;;;;4987801;28;20038;-65
2023/01/30 04:16:28;;;;;;;1.25;0.85;;;6.90;99.90;;;;;;4987351;28;20047;-66
2023/01/30 04:18:56;;;;;;;0.38;0.38;;;6.90;99.90;;;;;;4967717;28;20394;-65
2023/01/30 04:21:22;;;;;;;0.10;0.10;;;6.90;99.90;;;;;;4988292;28;20046;-66
2023/01/30 04:23:48;;;;;;;1.08;1.08;;;6.90;99.90;;;;;;4988939;28;20478;-66
2023/01/30 04:26:14;;;;;;;0.10;0.10;;;6.90;99.90;;;;;;4987109;28;20070;-66
2023/01/30 04:28:40;;;;;;;1.80;1.65;;;6.80;99.90;;;;;;4992072;28;20035;-65
2023/01/30 04:31:06;;;;;;;0.82;0.82;;;6.80;99.90;;;;;;4991146;28;20406;-66
2023/01/30 04:33:35;;;;;;;0.47;0.47;;;6.80;99.90;;;;;;4988300;28;20049;-66
2023/01/30 04:36:03;;;;;;;0.10;0.10;;;6.80;99.90;;;;;;4990698;28;20069;-66
2023/01/30 04:38:30;;;;;;;0.10;0.10;;;6.80;99.90;;;;;;4989608;28;20069;-66
2023/01/30 04:40:57;;;;;;;0.10;0.10;;;6.80;99.90;;;;;;4988255;28;20497;-66
2023/01/30 04:43:24;;;;;;;0.10;0.10;;;6.70;99.90;;;;;;4990234;28;20047;-66
2023/01/30 04:45:51;;;;;;;0.52;0.52;;;6.70;99.90;;;;;;4989104;28;20053;-66
2023/01/30 04:48:18;;;;;;;0.10;0.10;;;6.80;99.90;;;;;;4989964;28;20375;-66
2023/01/30 04:50:46;;;;;;;0.10;0.10;;;6.80;99.90;;;;;;4989363;28;20505;-65
2023/01/30 04:53:12;;;;;;;1.08;1.08;;;6.80;99.90;;;;;;4988550;28;20073;-66
2023/01/30 04:55:40;;;;;;;0.10;0.10;;;6.80;99.90;;;;;;4990132;28;20498;-65
2023/01/30 04:58:06;;;;;;;0.10;0.10;;;6.80;99.90;;;;;;4991838;28;20132;-66
2023/01/30 05:00:34;;;;;;;0.20;0.20;;;6.70;99.90;;;;;;4985108;28;20039;-65
2023/01/30 05:03:00;;;;;;;2.42;2.25;;;6.70;99.90;;;;;;4988440;28;20494;-65
2023/01/30 05:05:26;;;;;;;0.22;0.22;;;6.70;99.90;;;;;;4989861;28;20042;-65
2023/01/30 05:07:52;;;;;;;0.08;0.08;;;6.70;99.90;;;;;;4990297;28;20066;-65
2023/01/30 05:10:21;;;;;;;0.10;0.10;;;6.70;99.90;;;;;;4990917;28;20409;-66
2023/01/30 05:12:47;;;;;;;0.63;0.63;;;6.70;99.90;;;;;;4988294;28;20726;-65
2023/01/30 05:15:13;;;;;;;0.22;0.22;;;6.70;99.90;;;;;;4973126;28;20148;-65
2023/01/30 05:17:42;;;;;;;5.15;3.72;;;6.70;99.90;;;;;;4974339;28;20034;-65
2023/01/30 05:20:08;;;;;;;0.38;0.38;;;6.60;99.90;;;;;;4987115;28;20184;-65
2023/01/30 05:22:34;;;;;;;0.10;0.10;;;6.60;99.90;;;;;;4990165;28;20132;-65
2023/01/30 05:25:00;;;;;;;0.65;0.65;;;6.60;99.90;;;;;;4985117;28;20513;-66
2023/01/30 05:27:26;;;;;;;0.10;0.10;;;6.50;99.90;;;;;;4988878;28;20367;-65
2023/01/30 05:29:51;;;;;;;1.17;1.15;;;6.50;99.90;;;;;;4973440;28;20093;-65
2023/01/30 05:32:18;;;;;;;0.20;0.20;;;6.50;99.90;;;;;;4988349;28;20042;-65
2023/01/30 05:34:44;;;;;;;0.10;0.10;;;6.50;99.90;;;;;;4988689;28;20046;-65
2023/01/30 05:37:10;;;;;;;0.10;0.10;;;6.60;99.90;;;;;;4984413;28;20145;-65
2023/01/30 05:39:36;;;;;;;0.20;0.20;;;6.60;99.90;;;;;;4988821;28;20108;-65
2023/01/30 05:42:02;;;;;;;5.50;1.40;;;6.60;99.90;;;;;;4989465;28;20039;-65
2023/01/30 05:44:28;;;;;;;2.25;1.25;;;6.60;99.90;;;;;;4991036;28;20041;-65
2023/01/30 05:46:53;;;;;;;0.10;0.10;;;6.70;99.90;;;;;;4987440;28;20046;-65
2023/01/30 05:49:19;;;;;;;1.10;0.70;;;6.70;99.90;;;;;;4989958;28;20050;-65
2023/01/30 05:51:45;;;;;;;0.10;0.10;;;6.70;99.90;;;;;;4987247;28;20225;-65
2023/01/30 05:54:11;;;;;;;0.85;0.85;;;6.80;99.90;;;;;;4967828;28;20062;-66
2023/01/30 05:56:36;;;;;;;0.20;0.20;;;6.70;99.90;;;;;;4985851;28;20053;-65
2023/01/30 05:59:03;;;;;;;0.40;0.40;;;6.80;99.90;;;;;;4987325;28;20042;-65
2023/01/30 06:01:29;;;;;;;0.63;0.55;;;6.80;99.90;;;;;;4989267;28;20046;-65
2023/01/30 06:03:56;;;;;;;0.25;0.25;;;6.80;99.90;;;;;;4969236;28;20354;-65
2023/01/30 06:06:22;;;;;;;5.38;1.75;;;6.80;99.90;;;;;;4988683;28;20543;-65
2023/01/30 06:08:52;;;;;;;0.10;0.10;;;6.80;99.90;;;;;;4989617;28;20041;-65
2023/01/30 06:11:18;;;;;;;0.20;0.20;;;6.80;99.90;;;;;;4989760;28;20073;-65
2023/01/30 06:13:44;;;;;;;0.10;0.10;;;6.80;99.90;;;;;;4986961;28;20046;-66
2023/01/30 06:16:12;;;;;;;3.92;1.55;;;6.80;99.90;;;;;;4990075;28;20046;-66
2023/01/30 06:18:40;;;;;;;0.10;0.10;;;6.80;99.90;;;;;;4987553;28;20080;-66
2023/01/30 06:21:07;;;;;;;0.10;0.10;;;6.80;99.90;;;;;;4988937;28;20066;-66
2023/01/30 06:23:33;;;;;;;0.00;0.00;;;6.80;99.90;;;;;;4988767;28;20121;-65
2023/01/30 06:26:00;;;;;;;0.10;0.10;;;6.70;99.90;;;;;;4988690;28;20054;-66
2023/01/30 06:28:26;;;;;;;0.10;0.10;;;6.80;99.90;;;;;;4986237;28;20449;-65
2023/01/30 06:30:52;;;;;;;1.17;1.08;;;6.70;99.90;;;;;;4969217;28;20513;-65
2023/01/30 06:33:19;;;;;;;0.85;0.85;;;6.70;99.90;;;;;;4985870;28;22848;-65
2023/01/30 06:35:47;;;;;;;1.55;1.45;;;6.70;99.90;;;;;;4993345;28;20097;-66
2023/01/30 06:38:13;;;;;;;0.10;0.10;;;6.70;99.90;;;;;;4986429;28;20050;-66
2023/01/30 06:40:40;;;;;;;0.10;0.10;;;6.70;99.90;;;;;;4987310;28;20109;-66
2023/01/30 06:43:06;;;;;;;7.10;2.70;;;6.70;99.90;;;;;;4987524;28;20038;-66
2023/01/30 06:45:32;;;;;;;0.13;0.13;;;6.70;99.90;;;;;;4988911;28;20042;-66
2023/01/30 06:47:58;;;;;;;0.10;0.10;;;6.70;99.90;;;;;;4985507;28;20053;-66
2023/01/30 06:50:26;;;;;;;0.30;0.30;;;6.70;99.90;;;;;;4988000;28;20093;-66
2023/01/30 06:52:53;;;;;;;0.13;0.13;;;6.70;99.90;;;;;;4986733;28;20065;-66
2023/01/30 06:55:21;;;;;;;0.52;0.52;;;6.70;99.90;;;;;;4987939;28;20046;-66
2023/01/30 06:57:48;;;;;;;0.10;0.10;;;6.70;99.90;;;;;;4987545;28;20038;-66
2023/01/30 07:00:21;;;;;;;0.40;0.40;;;6.80;99.90;;;;;;4988027;28;20046;-66
2023/01/30 07:02:47;;;;;;;0.65;0.65;;;6.80;99.90;;;;;;4987208;28;20413;-65
2023/01/30 07:05:12;;;;;;;0.10;0.10;;;6.80;99.90;;;;;;4986274;28;20046;-65
2023/01/30 07:07:38;;;;;;;1.10;1.00;;;6.80;99.90;;;;;;4987291;28;20523;-65
2023/01/30 07:10:06;;;;;;;1.95;1.85;;;6.80;99.90;;;;;;4984028;28;20053;-66
2023/01/30 07:12:35;;;;;;;1.05;1.00;;;6.80;99.90;;;;;;4989131;28;20204;-65
2023/01/30 07:15:05;;;;;;;0.82;0.82;;;6.70;99.90;;;;;;4984193;28;20030;-66
2023/01/30 07:17:31;;;;;;;1.08;0.95;;;6.80;99.90;;;;;;4989336;28;20121;-66
2023/01/30 07:19:56;;;;;;;28.67;3.38;;;6.80;99.90;;;;;;4968830;28;20430;-65
2023/01/30 07:22:22;;;;;;;2.08;1.95;;;6.70;99.90;;;;;;4989302;28;20042;-66
2023/01/30 07:24:48;;;;;;;0.22;0.22;;;6.70;99.90;;;;;;4988235;28;20047;-66
2023/01/30 07:27:13;;;;;;;0.10;0.10;;;6.70;99.90;;;;;;4981969;28;20485;-66
2023/01/30 07:29:40;;;;;;;0.80;0.65;;;6.80;99.90;;;;;;4988235;28;20053;-66
2023/01/30 07:32:13;;;;;;;0.10;0.10;;;6.80;99.90;;;;;;4981649;28;20042;-65
2023/01/30 07:34:39;;;;;;;;;;;6.90;99.90;;;;;;4979623;28;20039;-66
2023/01/30 07:37:04;;;;;;;0.10;0.10;;;6.80;99.90;;;;;;4985023;28;19926;-66
2023/01/30 07:39:30;;;;;;;0.10;0.10;;;6.90;99.90;;;;;;4987656;28;20044;-63
2023/01/30 07:41:56;;;;;;;0.20;0.20;;;6.90;99.90;;;;;;4968489;28;20046;-64
2023/01/30 07:44:21;;;;;;;0.20;0.20;;;6.90;99.90;;;;;;4983152;28;20125;-65
2023/01/30 07:46:47;;;;;;;0.10;0.10;;;6.90;99.90;;;;;;4966082;28;20470;-64
2023/01/30 07:49:13;;;;;;;2.83;1.50;;;6.80;99.90;;;;;;4978741;28;20656;-66
2023/01/30 07:51:38;;;;;;;8.25;2.78;;;6.80;99.90;;;;;;4984361;28;20129;-67
2023/01/30 07:54:04;;;;;;;0.35;0.17;;;6.80;99.90;;;;;;4983937;28;20453;-66
2023/01/30 07:56:29;;;;;;;1.10;1.08;;;6.90;99.90;;;;;;4983880;28;20122;-66
2023/01/30 07:58:55;;;;;;;2.92;2.40;;;6.80;99.90;;;;;;4987539;28;20092;-65
2023/01/30 08:01:21;;;;;;;0.10;0.10;;;6.80;99.90;;;;;;4989218;28;20124;-64
2023/01/30 08:03:48;;;;;;;0.10;0.10;;;6.90;99.90;;;;;;4985868;28;20046;-65
2023/01/30 08:06:17;;;;;;;0.10;0.10;;;6.90;99.90;;;;;;4989298;28;20034;-66
2023/01/30 08:08:43;;;;;;;0.10;0.10;;;6.90;99.90;;;;;;4991918;28;20622;-66
2023/01/30 08:11:08;;;;;;;0.73;0.73;;;6.90;99.90;;;;;;4990771;28;20054;-64
2023/01/30 08:13:34;;;;;;;0.93;0.93;;;6.90;99.90;;;;;;4993007;28;20761;-65
2023/01/30 08:16:01;;;;;;;0.05;0.05;;;6.90;99.90;;;;;;4987958;28;20505;-64
2023/01/30 08:18:31;;;;;;;0.70;0.70;;;6.90;99.90;;;;;;4991117;28;20053;-65
2023/01/30 08:21:01;;;;;;;0.38;0.38;;;7.00;99.90;;;;;;4990566;28;20042;-65
2023/01/30 08:23:27;;;;;;;0.40;0.40;;;7.00;99.90;;;;;;4990937;28;20042;-64
2023/01/30 08:25:54;;;;;;;1.08;0.98;;;7.00;99.90;;;;;;4989909;28;20486;-65
2023/01/30 08:28:20;;;;;;;0.22;0.22;;;7.00;99.90;;;;;;4990032;28;20038;-65
2023/01/30 08:30:47;;;;;;;0.10;0.10;;;7.00;99.90;;;;;;4990300;28;20053;-65
2023/01/30 08:33:14;;;;;;;2.40;1.75;;;7.00;99.90;;;;;;4989839;28;20050;-66
2023/01/30 08:35:40;;;;;;;0.10;0.10;;;7.00;99.90;;;;;;4986826;28;20034;-66
2023/01/30 08:38:15;;;;;;;0.10;0.10;;;7.10;99.90;;;;;;4988305;28;20493;-66
2023/01/30 08:40:41;;;;;;;1.98;1.80;;;7.10;99.90;;;;;;4990257;28;20501;-66
2023/01/30 08:43:07;;;;;;;0.10;0.10;;;7.10;99.90;;;;;;4988634;28;20054;-66
2023/01/30 08:45:35;;;;;;;0.10;0.10;;;7.10;99.90;;;;;;4987773;28;20061;-67
2023/01/30 08:48:05;;;;;;;0.40;0.40;;;7.10;99.90;;;;;;4990507;28;20039;-66
2023/01/30 08:50:32;;;;;;;0.30;0.30;;;7.20;99.90;;;;;;4971336;28;20129;-65
2023/01/30 08:53:03;;;;;;;0.10;0.10;;;7.10;99.90;;;;;;4986215;28;20184;-66
2023/01/30 08:55:29;;;;;;;0.40;0.40;;;7.10;99.90;;;;;;4987693;28;21018;-66
2023/01/30 08:57:55;;;;;;;0.10;0.10;;;7.20;99.90;;;;;;4989003;28;20040;-66
2023/01/30 09:00:21;;;;;;;1.55;0.90;;;7.20;99.90;;;;;;4981590;28;21093;-66
2023/01/30 09:02:50;;;;;;;0.00;0.00;;;7.20;99.90;;;;;;4984648;28;20121;-65
2023/01/30 09:05:15;;;;;;;0.50;0.50;;;7.30;99.90;;;;;;4988020;28;20049;-66
2023/01/30 09:07:41;;;;;;;0.10;0.10;;;7.40;99.90;;;;;;4990697;28;20445;-66
2023/01/30 09:10:07;;;;;;;2.15;1.98;;;7.40;99.90;;;;;;4990480;28;20553;-67
2023/01/30 09:12:33;;;;;;;1.30;1.15;;;7.40;99.90;;;;;;4991251;28;20046;-67
2023/01/30 09:14:59;;;;;;;0.10;0.10;;;7.40;99.90;;;;;;4969449;28;20104;-66
2023/01/30 09:17:25;;;;;;;0.10;0.10;;;7.40;99.90;;;;;;4969825;28;20068;-66
2023/01/30 09:19:53;;;;;;;0.10;0.10;;;7.40;99.90;;;;;;4988121;28;20457;-67
2023/01/30 09:22:19;;;;;;;0.75;0.75;;;7.40;99.90;;;;;;4990384;28;20049;-67
2023/01/30 09:24:44;;;;;;;0.20;0.20;;;7.40;99.90;;;;;;4991015;28;20046;-67
2023/01/30 09:27:10;;;;;;;8.43;6.85;;;7.40;99.90;;;;;;4989176;28;20062;-67
2023/01/30 09:29:35;;;;;;;0.10;0.10;;;7.40;99.90;;;;;;4991634;28;20054;-67
2023/01/30 09:32:01;;;;;;;0.10;0.10;;;7.40;99.90;;;;;;4988237;28;20138;-67
2023/01/30 09:34:27;;;;;;;0.22;0.22;;;7.40;99.90;;;;;;4988805;28;20050;-67
2023/01/30 09:37:01;;;;;;;0.13;0.13;;;7.40;99.90;;;;;;4990147;28;20639;-67
2023/01/30 09:39:30;;;;;;;2.25;0.85;;;7.40;99.90;;;;;;4985337;28;20049;-67
2023/01/30 09:42:17;;;;;;;3.40;2.08;;;7.50;99.90;;;;;;4988858;28;20057;-67
2023/01/30 09:45:12;;;;;;;0.17;0.17;;;7.50;99.90;;;;;;4990000;28;20052;-67
2023/01/30 09:47:56;;;;;;;0.10;0.10;;;7.60;99.90;;;;;;4990042;28;20486;-67
2023/01/30 09:51:02;;;;;;;0.57;0.57;;;7.70;99.90;;;;;;4987155;28;20498;-67
2023/01/30 09:54:06;;;;;;;0.10;0.10;;;7.80;99.90;;;;;;4969698;28;20066;-67
2023/01/30 09:56:32;;;;;;;0.10;0.10;;;7.80;99.90;;;;;;4982796;28;20522;-67
2023/01/30 09:59:04;;;;;;;0.75;0.75;;;7.80;99.90;;;;;;4987589;28;20047;-67
2023/01/30 10:01:54;;;;;;;3.42;3.13;;;7.80;99.90;;;;;;4991259;28;20622;-67
2023/01/30 10:04:42;;;;;;;0.30;0.30;;;7.90;99.90;;;;;;4982749;28;20064;-66
2023/01/30 10:07:22;;;;;;;0.20;0.20;;;8.00;99.90;;;;;;4984564;28;20149;-67
2023/01/30 10:10:01;;;;;;;0.55;0.55;;;8.00;99.90;;;;;;4970701;28;20070;-68
2023/01/30 10:13:04;;;;;;;0.65;0.65;;;8.00;99.90;;;;;;4969075;28;20100;-67
2023/01/30 10:16:01;;;;;;;3.00;0.90;;;8.00;99.90;;;;;;4972786;28;20097;-67
2023/01/30 10:18:44;;;;;;;0.47;0.47;;;8.20;99.90;;;;;;4989706;28;20089;-67
2023/01/30 10:21:31;;;;;;;4.05;3.78;;;8.30;99.90;;;;;;4989553;28;20779;-67
2023/01/30 10:24:34;;;;;;;0.85;0.85;;;8.30;99.90;;;;;;4987856;28;20046;-67
2023/01/30 10:27:00;;;;;;;1.65;1.40;;;8.20;99.90;;;;;;4969215;28;20090;-67
2023/01/30 10:29:37;;;;;;;1.33;1.23;;;8.20;99.90;;;;;;4989355;28;20038;-67
2023/01/30 10:32:38;;;;;;;4.22;1.95;;;8.30;99.90;;;;;;4988183;28;20337;-67
2023/01/30 10:35:20;;;;;;;0.10;0.10;;;8.20;99.90;;;;;;4983357;28;20058;-67
2023/01/30 10:38:11;;;;;;;2.55;1.75;;;8.20;99.90;;;;;;4988156;28;20379;-67
2023/01/30 10:41:09;;;;;;;0.25;0.25;;;8.00;99.90;;;;;;4978942;28;20058;-67
2023/01/30 10:43:44;;;;;;;0.10;0.10;;;7.80;99.90;;;;;;4985110;28;20053;-66
2023/01/30 10:46:22;;;;;;;0.63;0.63;;;7.90;99.90;;;;;;4966455;28;20567;-67
2023/01/30 10:49:12;;;;;;;0.10;0.10;;;8.00;99.90;;;;;;4987577;28;20086;-67
2023/01/30 10:52:25;;;;;;;1.30;1.20;;;8.00;99.90;;;;;;4989196;28;20112;-67
2023/01/30 10:55:28;;;;;;;0.10;0.10;;;8.10;99.90;;;;;;4978828;28;20138;-66
2023/01/30 10:58:26;;;;;;;0.10;0.10;;;8.20;99.90;;;;;;4983351;28;20295;-67
2023/01/30 11:01:12;;;;;;;0.90;0.90;;;8.10;99.90;;;;;;4986421;28;20133;-67
2023/01/30 11:03:50;;;;;;;0.70;0.70;;;8.20;99.90;;;;;;4986711;28;20050;-66
2023/01/30 11:06:24;;;;;;;0.10;0.10;;;8.40;99.90;;;;;;4986673;28;20046;-66
2023/01/30 11:08:51;;;;;;;0.17;0.17;;;8.50;99.90;;;;;;4988490;28;20460;-65
2023/01/30 11:11:45;;;;;;;0.03;0.03;;;8.60;99.90;;;;;;4987421;28;20058;-64
2023/01/30 11:14:12;;;;;;;0.10;0.10;;;8.80;99.90;;;;;;4988122;28;20134;-65
2023/01/30 11:16:45;;;;;;;0.90;0.90;;;9.00;99.90;;;;;;4986031;28;20470;-66
2023/01/30 11:19:13;;;;;;;0.20;0.20;;;8.80;99.90;;;;;;4984033;28;20331;-66
2023/01/30 11:21:41;;;;;;;1.33;1.15;;;8.40;99.90;;;;;;4986942;28;20575;-66
2023/01/30 11:24:16;;;;;;;0.63;0.63;;;8.00;99.90;;;;;;4982904;28;20139;-66
2023/01/30 11:26:42;;;;;;;0.20;0.20;;;7.70;99.90;;;;;;4986386;28;20053;-66
2023/01/30 11:29:37;;;;;;;1.52;1.42;;;7.60;99.90;;;;;;4970877;28;20058;-65
2023/01/30 11:32:10;;;;;;;0.15;0.15;;;7.40;99.90;;;;;;4980600;28;20042;-66
2023/01/30 11:34:36;;;;;;;0.10;0.10;;;7.30;99.90;;;;;;4984365;28;20042;-67
2023/01/30 11:37:30;;;;;;;0.10;0.10;;;7.20;99.90;;;;;;4988751;28;20080;-66
2023/01/30 11:39:56;;;;;;;7.70;1.17;;;7.40;99.90;;;;;;4982895;28;20137;-66
2023/01/30 11:42:31;;;;;;;0.17;0.17;;;7.70;99.90;;;;;;4987507;28;20644;-66
2023/01/30 11:45:00;;;;;;;0.10;0.10;;;7.90;99.90;;;;;;4962861;28;20138;-66
2023/01/30 11:47:28;;;;;;;1.25;1.02;;;8.10;99.90;;;;;;4984362;28;20161;-66
2023/01/30 11:50:01;;;;;;;6.07;1.45;;;8.30;99.90;;;;;;4978348;28;20093;-66
2023/01/30 11:52:33;;;;;;;0.10;0.10;;;8.50;99.90;;;;;;4983386;28;20161;-67
2023/01/30 11:55:07;;;;;;;0.10;0.10;;;8.70;99.90;;;;;;4985992;28;20480;-68
2023/01/30 11:57:57;;;;;;;0.10;0.10;;;8.80;99.90;;;;;;4987889;28;20049;-68
2023/01/30 12:00:46;;;;;;;0.90;0.90;;;9.00;99.90;;;;;;4988818;28;20050;-69
2023/01/30 12:03:17;;;;;;;0.38;0.35;;;9.30;99.90;;;;;;4985260;28;20058;-68
2023/01/30 12:05:46;;;;;;;0.00;0.00;;;9.50;99.90;;;;;;4984822;28;20101;-66
2023/01/30 12:08:15;;;;;;;0.20;0.20;;;9.60;99.90;;;;;;4987339;28;20046;-65
2023/01/30 12:10:54;;;;;;;0.15;0.15;;;9.90;99.90;;;;;;4970045;28;20050;-66
2023/01/30 12:13:26;;;;;;;0.10;0.10;;;10.00;99.90;;;;;;4988659;28;21302;-66
2023/01/30 12:16:03;;;;;;;0.00;0.00;;;10.20;99.90;;;;;;4986078;28;20054;-66
2023/01/30 12:18:37;;;;;;;0.10;0.10;;;10.40;99.90;;;;;;4988089;28;20043;-66
2023/01/30 12:21:29;;;;;;;0.00;0.00;;;10.30;99.90;;;;;;4985740;28;20875;-67
2023/01/30 12:24:34;;;;;;;0.52;0.52;;;10.30;99.90;;;;;;4982005;28;20064;-66
2023/01/30 12:27:41;;;;;;;1.23;1.13;;;10.40;99.90;;;;;;4961349;28;20113;-68
2023/01/30 12:30:21;;;;;;;0.10;0.10;;;10.30;99.90;;;;;;4984944;28;20054;-66
2023/01/30 12:32:47;;;;;;;0.00;0.00;;;10.50;99.90;;;;;;4987937;28;20042;-66
2023/01/30 12:35:17;;;;;;;8.15;3.33;;;10.50;99.90;;;;;;4987232;28;20058;-66
2023/01/30 12:38:24;;;;;;;0.32;0.32;;;10.40;99.90;;;;;;4962962;28;20694;-66
2023/01/30 12:41:11;;;;;;;0.00;0.00;;;10.40;99.90;;;;;;4946016;28;20058;-65
2023/01/30 12:44:09;;;;;;;0.00;0.00;;;10.50;99.90;;;;;;4986596;28;20085;-65
2023/01/30 12:46:51;;;;;;;0.22;0.22;;;10.50;99.90;;;;;;4971213;28;20046;-65
2023/01/30 12:49:38;;;;;;;0.45;0.30;;;10.40;99.90;;;;;;4991726;28;20510;-65
2023/01/30 12:52:36;;;;;;;12.35;4.75;;;10.40;99.90;;;;;;4984523;28;20066;-66
2023/01/30 12:55:20;;;;;;;9.90;1.25;;;10.50;99.90;;;;;;4989906;28;20054;-66
2023/01/30 12:57:48;;;;;;;;;;;10.50;99.90;;;;;;4991895;28;20053;-66
2023/01/30 13:01:01;;;;;;;0.20;0.20;;;10.40;99.90;;;;;;4991242;28;19922;-66
2023/01/30 13:03:34;;;;;;;3.08;1.20;;;10.40;99.90;;;;;;4991965;28;20121;-66
2023/01/30 13:06:18;;;;;;;0.20;0.20;;;10.60;99.90;;;;;;4981679;28;20048;-66
2023/01/30 13:09:13;;;;;;;0.13;0.13;;;10.80;99.90;;;;;;4973246;28;20060;-66
2023/01/30 13:12:02;;;;;;;20.85;1.65;;;10.90;99.90;;;;;;4991411;28;20097;-67
2023/01/30 13:14:45;;;;;;;0.75;0.75;;;11.10;99.90;;;;;;4980042;28;20073;-66
2023/01/30 13:17:16;;;;;;;0.75;0.75;;;11.10;99.90;;;;;;4989476;28;20080;-66
2023/01/30 13:19:48;;;;;;;0.75;0.75;;;11.10;99.90;;;;;;4967163;28;20046;-68
2023/01/30 13:22:27;;;;;;;2.67;2.45;;;11.20;99.90;;;;;;4979032;28;20054;-66
2023/01/30 13:25:03;;;;;;;2.20;0.77;;;10.90;99.90;;;;;;4989582;28;20555;-66
2023/01/30 13:27:35;;;;;;;0.10;0.10;;;11.00;99.90;;;;;;4973453;28;20050;-66